Time;durP1;ratioP1;P1;durP2;ratioP2;P2;SDS_P1;SDS_P2;PMS_P1;PMS_P2;Temp;Humidity;BMP_temperature;BMP_pressure;BME280_temperature;BME280_humidity;BME280_pressure;Samples;Min_cycle;Max_cycle;Signal;HPM_P1;HPM_P2
2023/05/19 00:03:02;;;;;;;21.65;11.90;;;;;;;15.46;46.33;100944.86;1770248;80;21232;-53
2023/05/19 00:06:09;;;;;;;15.65;10.90;;;;;;;15.42;46.33;100949.06;1770249;81;21217;-53
2023/05/19 00:09:17;;;;;;;14.30;10.35;;;;;;;15.37;46.32;100947.38;1770185;80;21229;-54
2023/05/19 00:12:23;;;;;;;17.80;11.93;;;;;;;15.32;46.31;100948.47;1770813;80;21256;-54
2023/05/19 00:15:31;;;;;;;16.45;11.18;;;;;;;15.30;46.42;100951.94;1771801;80;21698;-54
2023/05/19 00:18:36;;;;;;;15.03;11.05;;;;;;;15.26;46.43;100942.34;1770437;80;21205;-52
2023/05/19 00:21:43;;;;;;;17.00;10.88;;;;;;;15.24;46.51;100948.58;1770282;80;21703;-53
2023/05/19 00:24:49;;;;;;;17.60;11.03;;;;;;;15.24;46.59;100951.33;1770428;80;21402;-53
2023/05/19 00:27:58;;;;;;;20.23;12.07;;;;;;;15.24;46.68;100942.22;1770175;81;21321;-54
2023/05/19 00:31:03;;;;;;;17.67;11.63;;;;;;;15.23;46.75;100948.25;1770263;80;21765;-53
2023/05/19 00:34:10;;;;;;;20.92;11.50;;;;;;;15.17;46.75;100947.66;1770155;79;21264;-53
2023/05/19 00:37:17;;;;;;;15.32;11.15;;;;;;;15.12;46.73;100944.61;1770265;80;21738;-53
2023/05/19 00:40:24;;;;;;;18.12;11.40;;;;;;;15.07;46.75;100946.21;1770767;79;21757;-53
2023/05/19 00:43:30;;;;;;;16.95;12.50;;;;;;;14.99;46.79;100942.52;1770428;80;21268;-53
2023/05/19 00:46:36;;;;;;;18.87;12.63;;;;;;;14.89;46.81;100950.22;1770106;80;21209;-53
2023/05/19 00:49:42;;;;;;;17.67;12.07;;;;;;;14.80;46.86;100945.84;1770483;80;21726;-53
2023/05/19 00:52:48;;;;;;;16.95;11.78;;;;;;;14.72;46.94;100945.94;1771478;79;21714;-53
2023/05/19 00:55:55;;;;;;;17.67;11.70;;;;;;;14.63;47.00;100944.32;1784230;80;21190;-55
2023/05/19 00:59:02;;;;;;;17.90;11.03;;;;;;;14.58;47.14;100950.91;1771923;79;21221;-53
2023/05/19 01:02:07;;;;;;;14.07;11.35;;;;;;;14.51;47.22;100949.07;1771971;80;21758;-54
2023/05/19 01:05:14;;;;;;;18.45;12.18;;;;;;;14.45;47.34;100944.31;1772070;80;21749;-53
2023/05/19 01:08:21;;;;;;;16.85;11.45;;;;;;;14.39;47.49;100946.45;1773547;79;21351;-54
2023/05/19 01:11:28;;;;;;;17.65;12.82;;;;;;;14.34;47.60;100946.15;1772032;80;21375;-54
2023/05/19 01:14:33;;;;;;;19.17;11.12;;;;;;;14.29;47.75;100943.95;1771848;79;21741;-53
2023/05/19 01:18:06;;;;;;;17.15;11.97;;;;;;;14.29;48.04;100951.35;1772103;79;21924;-54
2023/05/19 01:21:22;;;;;;;21.05;11.50;;;;;;;14.27;48.23;100942.44;1772193;80;21324;-54
2023/05/19 01:24:48;;;;;;;15.68;11.48;;;;;;;14.27;48.35;100942.44;1772108;80;21217;-53
2023/05/19 01:28:15;;;;;;;15.00;11.57;;;;;;;14.26;48.50;100942.09;1772301;79;21205;-53
2023/05/19 01:31:26;;;;;;;19.98;12.82;;;;;;;14.23;48.56;100943.80;1771880;81;21201;-54
2023/05/19 01:34:30;;;;;;;20.52;12.45;;;;;;;14.18;48.60;100939.38;1783852;80;21355;-53
2023/05/19 01:37:37;;;;;;;15.78;11.45;;;;;;;14.16;48.75;100940.94;1772063;80;21323;-53
2023/05/19 01:40:44;;;;;;;16.87;11.78;;;;;;;14.16;48.91;100942.31;1771994;80;21292;-54
2023/05/19 01:43:49;;;;;;;19.42;12.00;;;;;;;14.18;49.06;100947.62;1771832;80;21228;-53
2023/05/19 01:46:55;;;;;;;18.10;11.88;;;;;;;14.16;49.17;100940.94;1772169;80;21181;-53
2023/05/19 01:50:02;;;;;;;17.27;11.63;;;;;;;14.14;49.18;100942.17;1772085;80;21209;-53
2023/05/19 01:53:07;;;;;;;17.92;11.68;;;;;;;14.10;49.18;100942.19;1770962;79;21173;-53
2023/05/19 01:56:14;;;;;;;18.23;10.80;;;;;;;14.05;49.23;100938.63;1770148;81;21236;-54
2023/05/19 01:59:45;;;;;;;22.30;11.83;;;;;;;14.01;49.31;100940.55;1770161;81;21225;-53
2023/05/19 02:03:15;;;;;;;16.60;11.43;;;;;;;13.98;49.41;100937.66;1770459;80;21205;-53
2023/05/19 02:07:08;;;;;;;17.50;12.30;;;;;;;13.97;49.61;100941.44;1770305;81;21185;-53
2023/05/19 02:10:29;;;;;;;16.73;11.90;;;;;;;13.97;49.78;100944.19;1734580;80;21217;-53
2023/05/19 02:13:38;;;;;;;19.67;12.75;;;;;;;13.99;49.91;100952.27;1770385;79;21197;-54
2023/05/19 02:16:43;;;;;;;20.65;12.35;;;;;;;13.96;49.91;100954.01;1770103;81;21244;-53
2023/05/19 02:19:50;;;;;;;19.42;13.03;;;;;;;13.92;49.96;100959.02;1770030;81;21343;-54
2023/05/19 02:22:57;;;;;;;21.37;12.33;;;;;;;13.92;50.09;100959.02;1770264;80;21711;-53
2023/05/19 02:26:03;;;;;;;21.27;12.10;;;;;;;13.92;50.16;100966.44;1770165;79;21335;-53
2023/05/19 02:29:11;;;;;;;20.70;11.88;;;;;;;13.92;50.23;100970.58;1770601;80;21224;-53
2023/05/19 02:32:18;;;;;;;16.90;11.30;;;;;;;13.91;50.28;100968.84;1770367;80;21185;-54
2023/05/19 02:35:25;;;;;;;16.25;12.28;;;;;;;13.92;50.38;100973.33;1770433;80;21162;-53
2023/05/19 02:38:31;;;;;;;20.37;12.05;;;;;;;13.95;50.55;100981.21;1762265;79;21264;-54
2023/05/19 02:41:36;;;;;;;20.77;11.80;;;;;;;14.00;50.65;100986.48;1770408;81;21185;-53
2023/05/19 02:44:42;;;;;;;18.30;10.78;;;;;;;14.05;50.77;100994.23;1769802;80;21193;-49
2023/05/19 02:47:48;;;;;;;17.70;11.25;;;;;;;14.09;50.90;100988.17;1770152;79;21193;-57
2023/05/19 02:50:53;;;;;;;19.35;11.68;;;;;;;14.16;51.00;100996.01;1770662;80;21181;-58
2023/05/19 02:53:59;;;;;;;18.12;11.70;;;;;;;14.22;51.05;100998.56;1769094;80;21346;-57
2023/05/19 02:57:05;;;;;;;17.12;11.35;;;;;;;14.29;51.10;101000.92;1770569;81;21240;-56
2023/05/19 03:00:12;;;;;;;21.70;11.50;;;;;;;14.34;51.15;100997.11;1770245;79;21726;-57
2023/05/19 03:03:18;;;;;;;17.25;11.53;;;;;;;14.41;51.18;101001.67;1763655;81;21228;-58
2023/05/19 03:06:25;;;;;;;17.73;10.50;;;;;;;14.48;51.25;101001.80;1770218;80;21177;-57
2023/05/19 03:09:32;;;;;;;17.87;11.90;;;;;;;14.55;51.22;100995.89;1770198;79;21245;-59
2023/05/19 03:12:38;;;;;;;21.30;11.95;;;;;;;14.60;51.27;101003.08;1770388;81;21189;-57
2023/05/19 03:15:44;;;;;;;14.10;11.05;;;;;;;14.65;51.26;101004.76;1770681;80;21300;-57
2023/05/19 03:18:51;;;;;;;17.12;10.78;;;;;;;14.70;51.30;101010.54;1769806;80;21240;-57
2023/05/19 03:21:57;;;;;;;18.92;11.97;;;;;;;14.76;51.34;101005.14;1767326;80;21730;-57
2023/05/19 03:25:03;;;;;;;17.95;11.03;;;;;;;14.83;51.41;101006.11;1767731;80;21275;-57
2023/05/19 03:28:09;;;;;;;22.93;10.82;;;;;;;14.93;51.51;101008.09;1768284;81;21260;-57
2023/05/19 03:31:16;;;;;;;20.90;11.20;;;;;;;15.03;51.53;101004.19;1770255;80;21197;-56
2023/05/19 03:34:22;;;;;;;15.80;11.12;;;;;;;15.12;51.57;101008.04;1770475;80;21236;-57
2023/05/19 03:37:27;;;;;;;15.85;10.72;;;;;;;15.24;51.60;101009.81;1769794;81;21773;-57
2023/05/19 03:40:33;;;;;;;15.60;10.82;;;;;;;15.35;51.61;101004.64;1769629;80;21185;-57
2023/05/19 03:43:39;;;;;;;16.73;10.82;;;;;;;15.45;51.61;101006.63;1769839;80;21247;-58
2023/05/19 03:46:46;;;;;;;13.95;10.85;;;;;;;15.58;51.61;101003.17;1769123;80;21256;-58
2023/05/19 03:49:53;;;;;;;18.50;11.25;;;;;;;15.69;51.66;100999.41;1771329;79;21593;-59
2023/05/19 03:53:08;;;;;;;16.73;10.98;;;;;;;15.81;51.63;101004.73;1769547;81;21718;-58
2023/05/19 03:56:15;;;;;;;15.55;10.35;;;;;;;15.94;51.60;100996.61;1768293;79;21773;-57
2023/05/19 03:59:22;;;;;;;17.20;9.85;;;;;;;16.04;51.58;100997.16;1770252;81;21260;-58
2023/05/19 04:02:28;;;;;;;15.83;10.80;;;;;;;16.16;51.53;101000.23;1780985;79;21343;-58
2023/05/19 04:05:35;;;;;;;17.85;10.80;;;;;;;16.26;51.49;101000.26;1739862;81;21761;-58
2023/05/19 04:08:43;;;;;;;17.77;11.57;;;;;;;16.37;51.47;100998.34;1739398;82;21225;-56
2023/05/19 04:11:50;;;;;;;18.67;11.03;;;;;;;16.48;51.41;100997.49;1739604;81;21248;-57
2023/05/19 04:14:56;;;;;;;16.45;10.08;;;;;;;16.57;51.36;101002.68;1739977;81;21213;-57
2023/05/19 04:18:04;;;;;;;15.18;9.93;;;;;;;16.66;51.34;101013.08;1739807;82;21193;-57
2023/05/19 04:21:10;;;;;;;21.33;11.22;;;;;;;16.76;51.34;101011.66;1705821;82;21232;-58
2023/05/19 04:24:15;;;;;;;13.03;10.05;;;;;;;16.88;51.31;101003.69;1692421;84;21217;-57
2023/05/19 04:27:22;;;;;;;15.48;10.18;;;;;;;16.98;51.29;101005.58;1692533;84;21289;-58
2023/05/19 04:30:27;;;;;;;18.07;10.28;;;;;;;17.09;51.27;101010.55;1692394;85;21273;-58
2023/05/19 04:33:34;;;;;;;15.58;10.75;;;;;;;17.22;51.26;101007.88;1692851;83;21296;-58
2023/05/19 04:36:40;;;;;;;16.48;11.05;;;;;;;17.35;51.31;101010.17;1714424;83;21612;-59
2023/05/19 04:39:47;;;;;;;16.67;10.10;;;;;;;17.51;51.29;101009.00;1690280;85;21732;-57
2023/05/19 04:42:53;;;;;;;13.53;9.88;;;;;;;17.64;51.27;101013.23;1689108;84;21210;-57
2023/05/19 04:46:00;;;;;;;15.68;10.20;;;;;;;17.76;51.24;101015.19;1771112;79;21181;-57
2023/05/19 04:49:11;;;;;;;13.80;9.15;;;;;;;17.88;51.18;101019.62;1770050;80;21208;-58
2023/05/19 04:52:20;;;;;;;19.35;10.00;;;;;;;18.01;51.17;101014.65;1765079;80;21709;-57
2023/05/19 04:55:24;;;;;;;18.30;10.03;;;;;;;18.14;51.14;101011.92;1765640;80;21395;-59
2023/05/19 04:58:30;;;;;;;17.55;9.85;;;;;;;18.24;51.08;101007.67;1764295;80;21702;-60
2023/05/19 05:01:39;;;;;;;12.43;9.73;;;;;;;18.37;51.02;101010.47;1707027;82;21216;-59
2023/05/19 05:04:45;;;;;;;16.23;10.30;;;;;;;18.51;51.00;101015.00;1761565;81;21328;-58
2023/05/19 05:07:52;;;;;;;12.58;9.00;;;;;;;18.64;50.97;101009.98;1767571;80;21241;-61
2023/05/19 05:11:02;;;;;;;18.80;9.23;;;;;;;18.79;50.95;101009.25;1744974;80;21769;-56
2023/05/19 05:14:08;;;;;;;16.35;9.15;;;;;;;18.93;50.91;101013.73;1738242;81;21220;-57
2023/05/19 05:17:19;;;;;;;13.32;8.73;;;;;;;19.04;50.82;101009.74;1757386;81;21554;-55
2023/05/19 05:20:26;;;;;;;14.43;8.65;;;;;;;19.20;50.78;101016.23;1762271;81;21201;-57
2023/05/19 05:23:33;;;;;;;12.88;8.45;;;;;;;19.34;50.72;101019.33;1768838;80;21329;-57
2023/05/19 05:26:40;;;;;;;16.00;8.10;;;;;;;19.51;50.63;101018.33;1779477;79;21209;-55
2023/05/19 05:29:47;;;;;;;19.75;8.95;;;;;;;19.66;50.58;101020.86;1758629;80;21221;-54
2023/05/19 05:32:55;;;;;;;14.03;7.87;;;;;;;19.79;50.44;101012.48;1767930;81;21543;-54
2023/05/19 05:36:03;;;;;;;14.50;7.50;;;;;;;19.90;50.28;101021.52;1753634;81;21197;-54
2023/05/19 05:39:10;;;;;;;11.68;7.30;;;;;;;20.04;50.22;101017.59;1754520;79;21189;-53
2023/05/19 05:42:19;;;;;;;10.93;7.87;;;;;;;20.18;50.03;101020.11;1704852;82;21244;-53
2023/05/19 05:45:25;;;;;;;12.90;7.40;;;;;;;20.31;49.90;101021.95;1695798;83;21250;-51
2023/05/19 05:48:33;;;;;;;13.30;6.42;;;;;;;20.46;49.80;101018.31;1691554;84;22118;-54
2023/05/19 05:51:42;;;;;;;17.35;7.10;;;;;;;20.58;49.64;101015.97;1689008;84;21222;-54
2023/05/19 05:54:50;;;;;;;10.68;6.90;;;;;;;20.75;49.55;101019.06;1741410;79;21328;-54
2023/05/19 05:57:59;;;;;;;10.80;6.03;;;;;;;20.89;49.45;101020.65;1741540;81;21300;-55
2023/05/19 06:01:10;;;;;;;23.95;6.80;;;;;;;21.03;49.31;101020.88;1764116;80;21240;-54
2023/05/19 06:04:17;;;;;;;11.80;5.87;;;;;;;21.17;49.10;101010.47;1760601;79;21781;-52
2023/05/19 06:07:23;;;;;;;12.20;6.33;;;;;;;21.30;48.92;101013.96;1766016;79;21188;-55
2023/05/19 06:10:29;;;;;;;9.23;6.30;;;;;;;21.45;48.76;101024.73;1768575;81;21240;-55
2023/05/19 06:13:38;;;;;;;11.18;5.97;;;;;;;21.60;48.57;101020.48;1769669;81;21268;-54
2023/05/19 06:16:46;;;;;;;9.23;5.65;;;;;;;21.74;48.35;101020.63;1766322;81;21248;-55
2023/05/19 06:19:53;;;;;;;8.73;4.90;;;;;;;21.87;48.10;101014.06;1766031;80;21229;-53
2023/05/19 06:23:00;;;;;;;16.45;6.37;;;;;;;22.01;47.87;101014.20;1765940;81;21244;-55
2023/05/19 06:26:05;;;;;;;10.53;5.00;;;;;;;22.13;47.63;101013.73;1751374;81;21260;-56
2023/05/19 06:29:11;;;;;;;10.08;4.75;;;;;;;22.28;47.42;101010.52;1768466;80;21225;-55
2023/05/19 06:32:18;;;;;;;9.30;4.80;;;;;;;22.40;47.09;101012.27;1761589;79;21188;-55
2023/05/19 06:35:25;;;;;;;9.18;5.20;;;;;;;22.53;46.86;101014.89;1767848;79;21734;-54
2023/05/19 06:38:32;;;;;;;13.22;4.42;;;;;;;22.68;46.62;101014.41;1755262;80;21205;-54
2023/05/19 06:41:38;;;;;;;6.72;4.50;;;;;;;22.82;46.32;101007.52;1737563;82;21749;-56
2023/05/19 06:44:49;;;;;;;9.90;4.60;;;;;;;22.91;46.00;101008.32;1762308;81;21221;-54
2023/05/19 06:47:57;;;;;;;10.15;4.30;;;;;;;23.03;45.80;101009.73;1767420;80;21260;-55
2023/05/19 06:51:04;;;;;;;7.87;4.25;;;;;;;23.12;45.52;101008.31;1759099;81;21216;-54
2023/05/19 06:54:14;;;;;;;9.38;4.37;;;;;;;23.20;45.21;101005.12;1767896;81;21593;-54
2023/05/19 06:57:21;;;;;;;6.75;3.62;;;;;;;23.33;44.98;101004.91;1768152;81;21201;-54
2023/05/19 07:00:27;;;;;;;5.28;3.02;;;;;;;23.48;44.76;101006.11;1768288;79;21205;-54
2023/05/19 07:03:34;;;;;;;11.38;4.60;;;;;;;23.57;44.33;101006.59;1770544;80;21193;-56
2023/05/19 07:06:40;;;;;;;9.23;3.67;;;;;;;23.64;44.05;100996.97;1742288;81;21177;-56
2023/05/19 07:09:46;;;;;;;14.83;4.95;;;;;;;23.72;43.75;101004.15;1704552;82;21303;-55
2023/05/19 07:12:53;;;;;;;8.95;3.47;;;;;;;23.83;43.48;101006.06;1675407;84;21377;-53
2023/05/19 07:16:00;;;;;;;11.80;3.30;;;;;;;23.90;43.14;101004.50;1713496;83;21222;-55
2023/05/19 07:19:08;;;;;;;6.28;3.33;;;;;;;23.98;42.84;101007.80;1719698;83;21802;-56
2023/05/19 07:22:16;;;;;;;8.65;3.40;;;;;;;24.13;42.66;101009.52;1689661;84;21802;-55
2023/05/19 07:25:21;;;;;;;10.28;3.12;;;;;;;24.29;42.39;101003.09;1677770;84;21465;-54
2023/05/19 07:28:28;;;;;;;6.85;3.90;;;;;;;24.41;41.99;101004.45;1696423;83;22173;-56
2023/05/19 07:31:35;;;;;;;6.78;3.45;;;;;;;24.49;41.64;101004.91;1713993;82;21229;-54
2023/05/19 07:34:43;;;;;;;6.47;3.20;;;;;;;24.64;41.37;100992.56;1724440;83;21759;-53
2023/05/19 07:37:50;;;;;;;11.40;3.42;;;;;;;24.77;41.01;100995.08;1708727;82;21214;-55
2023/05/19 07:40:57;;;;;;;7.37;2.80;;;;;;;24.87;40.67;101000.86;1706583;82;21213;-53
2023/05/19 07:44:06;;;;;;;9.78;2.80;;;;;;;25.00;40.28;101004.73;1714855;82;21608;-55
2023/05/19 07:47:11;;;;;;;4.45;2.55;;;;;;;25.13;39.87;100996.53;1685401;83;21784;-54
2023/05/19 07:50:16;;;;;;;6.72;2.87;;;;;;;25.28;39.56;101003.75;1697232;83;21238;-54
2023/05/19 07:53:22;;;;;;;5.67;2.72;;;;;;;25.41;39.24;101002.58;1711048;83;21751;-53
2023/05/19 07:56:29;;;;;;;9.98;2.77;;;;;;;25.46;38.85;100998.45;1690066;85;21209;-54
2023/05/19 07:59:35;;;;;;;9.68;3.00;;;;;;;25.46;38.34;100990.89;1703756;82;21219;-55
2023/05/19 08:02:45;;;;;;;6.17;3.70;;;;;;;25.51;38.02;101001.33;1704102;84;21235;-55
2023/05/19 08:05:53;;;;;;;4.53;2.62;;;;;;;25.60;37.75;101000.63;1704330;84;21228;-54
2023/05/19 08:09:00;;;;;;;5.60;2.72;;;;;;;25.67;37.42;100994.26;1704351;84;21811;-54
2023/05/19 08:12:07;;;;;;;9.63;2.60;;;;;;;25.80;37.15;100985.46;1715890;82;21228;-53
2023/05/19 08:15:15;;;;;;;10.70;3.45;;;;;;;25.98;36.85;100988.49;1692439;82;21204;-56
2023/05/19 08:18:22;;;;;;;7.30;3.12;;;;;;;26.14;36.58;100994.08;1706370;82;21207;-54
2023/05/19 08:21:33;;;;;;;5.08;2.87;;;;;;;26.17;36.17;100989.33;1708950;82;21772;-56
2023/05/19 08:24:37;;;;;;;8.98;3.05;;;;;;;26.29;35.98;100987.79;1700669;83;21261;-54
2023/05/19 08:27:44;;;;;;;4.28;2.37;;;;;;;26.52;35.83;100993.62;1698241;83;21220;-55
2023/05/19 08:30:51;;;;;;;8.48;2.65;;;;;;;26.72;35.51;100990.48;1723064;82;21200;-55
2023/05/19 08:33:58;;;;;;;7.12;2.98;;;;;;;26.81;35.03;100986.09;1702081;83;21265;-55
2023/05/19 08:37:05;;;;;;;4.97;2.98;;;;;;;26.84;34.68;100990.31;1709211;83;21211;-57
2023/05/19 08:40:14;;;;;;;6.17;3.10;;;;;;;26.86;34.35;100985.28;1717439;83;21225;-56
2023/05/19 08:43:20;;;;;;;15.50;3.05;;;;;;;26.67;33.92;100991.83;1719596;83;21226;-55
2023/05/19 08:46:29;;;;;;;4.47;2.70;;;;;;;26.62;33.77;100988.11;1699177;83;21481;-56
2023/05/19 08:49:35;;;;;;;7.20;2.55;;;;;;;26.70;33.67;100977.83;1708479;83;21257;-58
2023/05/19 08:53:00;;;;;;;6.35;2.40;;;;;;;26.85;33.60;100983.02;1721461;83;21250;-58
2023/05/19 08:56:12;;;;;;;8.60;3.05;;;;;;;26.98;33.37;100985.38;1693345;83;21213;-58
2023/05/19 08:59:21;;;;;;;8.80;2.85;;;;;;;26.95;32.98;100985.06;1704246;83;21190;-60
2023/05/19 09:02:28;;;;;;;6.87;2.70;;;;;;;26.79;32.76;100979.02;1722581;81;21213;-54
2023/05/19 09:05:33;;;;;;;13.28;3.45;;;;;;;26.75;32.67;100979.28;1773043;79;21209;-54
2023/05/19 09:08:41;;;;;;;8.30;4.60;;;;;;;26.70;32.54;100982.90;1760243;80;21216;-53
2023/05/19 09:11:48;;;;;;;5.47;3.17;;;;;;;26.62;32.40;100976.33;1704052;82;21204;-53
2023/05/19 09:14:53;;;;;;;7.30;2.98;;;;;;;26.60;32.26;100971.52;1729898;82;21256;-52
2023/05/19 09:18:01;;;;;;;8.58;2.83;;;;;;;26.76;32.20;100966.92;1717197;82;21626;-52
2023/05/19 09:21:09;;;;;;;10.78;2.83;;;;;;;27.02;32.19;100971.64;1683526;82;21576;-53
2023/05/19 09:24:16;;;;;;;5.33;2.87;;;;;;;27.24;32.01;100975.17;1739415;82;21671;-53
2023/05/19 09:27:22;;;;;;;6.90;2.70;;;;;;;27.27;31.77;100971.85;1754514;81;21193;-53
2023/05/19 09:30:36;;;;;;;6.45;2.70;;;;;;;27.24;31.55;100970.38;1765172;80;21216;-53
2023/05/19 09:33:47;;;;;;;5.87;3.05;;;;;;;27.14;31.33;100977.91;1739135;81;21255;-55
2023/05/19 09:36:54;;;;;;;5.87;2.60;;;;;;;26.99;31.14;100975.00;1777991;80;21185;-55
2023/05/19 09:40:00;;;;;;;5.17;3.22;;;;;;;26.76;30.90;100976.20;1769240;80;21231;-54
2023/05/19 09:43:14;;;;;;;5.58;3.15;;;;;;;26.77;30.95;100974.22;1769093;80;21213;-54
2023/05/19 09:46:21;;;;;;;6.65;3.10;;;;;;;26.86;31.04;100969.24;1741147;80;21194;-54
2023/05/19 09:49:32;;;;;;;5.95;2.62;;;;;;;27.13;31.11;100960.18;1739144;82;21233;-51
2023/05/19 09:52:37;;;;;;;8.70;2.72;;;;;;;27.45;31.06;100958.17;1743919;81;21189;-53
2023/05/19 09:55:44;;;;;;;8.30;3.17;;;;;;;27.68;30.80;100952.67;1761110;81;21205;-49
2023/05/19 09:58:52;;;;;;;10.48;3.00;;;;;;;27.50;30.46;100959.62;1724095;82;21201;-54
2023/05/19 10:02:02;;;;;;;5.72;2.67;;;;;;;27.31;30.24;100951.89;1762376;80;21824;-51
2023/05/19 10:05:08;;;;;;;6.35;2.70;;;;;;;27.39;30.32;100955.05;1753184;81;21912;-50
2023/05/19 10:08:16;;;;;;;8.40;2.90;;;;;;;27.61;30.28;100961.36;1748413;81;21198;-50
2023/05/19 10:11:22;;;;;;;4.12;2.50;;;;;;;27.88;30.25;100950.52;1734111;81;21813;-50
2023/05/19 10:14:33;;;;;;;4.10;2.22;;;;;;;28.04;29.95;100950.86;1758405;80;21274;-49
2023/05/19 10:17:38;;;;;;;15.53;2.65;;;;;;;28.13;29.74;100944.99;1749291;79;21255;-49
2023/05/19 10:20:44;;;;;;;6.92;2.65;;;;;;;28.27;29.58;100944.74;1741378;81;21170;-49
2023/05/19 10:23:51;;;;;;;9.08;3.58;;;;;;;28.28;29.38;100945.02;1757318;80;21212;-51
2023/05/19 10:27:06;;;;;;;11.08;2.77;;;;;;;28.11;29.17;100941.05;1724918;82;21195;-50
2023/05/19 10:30:22;;;;;;;12.73;3.33;;;;;;;27.96;28.98;100945.21;1760064;79;21229;-52
2023/05/19 10:34:01;;;;;;;8.45;3.00;;;;;;;27.82;28.82;100943.45;1761089;80;21239;-55
2023/05/19 10:37:36;;;;;;;6.50;3.20;;;;;;;27.86;28.79;100940.36;1755966;79;21304;-56
2023/05/19 10:41:04;;;;;;;6.90;2.50;;;;;;;28.20;28.92;100944.16;1769908;79;21220;-56
2023/05/19 10:44:32;;;;;;;6.03;2.80;;;;;;;28.52;28.87;100936.36;1769052;79;21240;-56
2023/05/19 10:47:46;;;;;;;7.03;2.60;;;;;;;28.37;28.36;100946.18;1758799;79;21505;-57
2023/05/19 10:51:10;;;;;;;4.70;2.98;;;;;;;28.13;28.10;100944.99;1754901;79;21252;-54
2023/05/19 10:54:21;;;;;;;5.83;2.70;;;;;;;27.97;28.06;100951.15;1755766;79;21797;-54
2023/05/19 10:57:35;;;;;;;9.55;2.80;;;;;;;27.95;28.06;100945.48;1757648;80;21786;-52
2023/05/19 11:00:43;;;;;;;5.55;2.50;;;;;;;28.23;28.21;100947.27;1738783;81;21272;-51
2023/05/19 11:04:01;;;;;;;5.80;2.72;;;;;;;28.54;28.22;100942.56;1767481;80;21585;-54
2023/05/19 11:07:10;;;;;;;7.28;2.80;;;;;;;28.76;28.11;100938.36;1746755;80;21180;-53
2023/05/19 11:10:22;;;;;;;7.40;2.98;;;;;;;29.00;28.02;100942.84;1767669;79;21253;-51
2023/05/19 11:13:29;;;;;;;10.80;2.92;;;;;;;28.93;27.63;100943.69;1771842;79;21738;-52
2023/05/19 11:16:42;;;;;;;4.58;2.87;;;;;;;28.68;27.40;100938.06;1728887;80;22085;-50
2023/05/19 11:20:03;;;;;;;8.75;2.85;;;;;;;28.51;27.31;100941.14;1761478;79;21750;-49
2023/05/19 11:23:21;;;;;;;11.57;3.30;;;;;;;28.35;27.20;100939.97;1741468;79;21260;-50
2023/05/19 11:26:48;;;;;;;5.20;3.20;;;;;;;28.19;27.17;100936.28;1703528;82;21872;-50
2023/05/19 11:29:57;;;;;;;5.08;2.80;;;;;;;28.09;27.11;100938.20;1695468;83;21837;-52
2023/05/19 11:33:04;;;;;;;7.62;2.80;;;;;;;27.97;27.01;100937.63;1707708;83;21202;-52
2023/05/19 11:36:11;;;;;;;5.90;3.02;;;;;;;27.81;26.97;100936.11;1718383;83;21764;-52
2023/05/19 11:39:16;;;;;;;3.45;2.87;;;;;;;27.71;26.98;100940.31;1705655;82;21228;-51
2023/05/19 11:42:23;;;;;;;7.47;3.08;;;;;;;27.66;26.98;100930.44;1708282;82;21217;-52
2023/05/19 11:45:33;;;;;;;9.03;5.00;;;;;;;27.92;27.28;100930.56;1713919;82;21237;-52
2023/05/19 11:48:39;;;;;;;5.92;3.40;;;;;;;28.26;27.50;100918.54;1700946;83;21750;-52
2023/05/19 11:51:46;;;;;;;8.00;3.20;;;;;;;28.53;27.51;100923.39;1689884;83;21904;-53
2023/05/19 11:54:55;;;;;;;6.53;3.40;;;;;;;28.78;27.58;100919.16;1693184;83;21316;-51
2023/05/19 11:58:05;;;;;;;9.03;3.58;;;;;;;29.08;27.61;100922.57;1718243;82;21196;-50
2023/05/19 12:01:13;;;;;;;5.45;3.27;;;;;;;29.24;27.44;100917.15;1716224;83;21261;-50
2023/05/19 12:04:18;;;;;;;4.90;3.12;;;;;;;29.46;27.26;100917.68;1720758;83;21754;-50
2023/05/19 12:07:30;;;;;;;8.30;2.90;;;;;;;29.68;27.17;100904.08;1725298;82;21268;-54
2023/05/19 12:10:38;;;;;;;6.87;2.80;;;;;;;29.81;26.91;100904.84;1710154;82;21761;-52
2023/05/19 12:13:46;;;;;;;4.22;2.65;;;;;;;29.84;26.70;100905.70;1673056;84;21283;-51
2023/05/19 12:16:54;;;;;;;6.80;3.08;;;;;;;30.04;26.78;100899.07;1681271;82;21798;-54
2023/05/19 12:20:00;;;;;;;8.30;3.12;;;;;;;30.24;26.43;100907.47;1696939;83;21273;-51
2023/05/19 12:23:06;;;;;;;9.80;3.47;;;;;;;30.13;26.23;100909.46;1696717;82;21286;-53
2023/05/19 12:26:13;;;;;;;8.30;3.17;;;;;;;29.85;25.94;100905.11;1706794;82;21261;-52
2023/05/19 12:29:20;;;;;;;6.58;3.15;;;;;;;29.66;25.81;100904.06;1717210;83;21272;-52
2023/05/19 12:32:25;;;;;;;6.70;2.87;;;;;;;29.51;25.72;100902.70;1700497;82;21337;-53
2023/05/19 12:35:36;;;;;;;7.78;2.85;;;;;;;29.51;25.69;100900.70;1688242;85;21291;-53
2023/05/19 12:38:41;;;;;;;7.72;3.30;;;;;;;29.48;25.54;100900.45;1688540;84;21248;-53
2023/05/19 12:41:51;;;;;;;9.05;4.03;;;;;;;29.19;25.35;100901.67;1688900;85;21218;-52
2023/05/19 12:44:59;;;;;;;7.00;3.52;;;;;;;28.86;25.24;100905.09;1705459;82;21693;-53
2023/05/19 12:48:05;;;;;;;10.13;3.62;;;;;;;28.63;25.28;100907.05;1697125;83;21619;-54
2023/05/19 12:51:11;;;;;;;9.95;3.05;;;;;;;28.46;25.63;100898.01;1715399;82;21273;-52
2023/05/19 12:54:18;;;;;;;11.45;3.80;;;;;;;28.46;25.63;100898.01;1700707;83;21269;-48
2023/05/19 12:57:26;;;;;;;8.35;3.33;;;;;;;28.46;25.33;100898.01;1698945;83;21238;-48
2023/05/19 13:00:34;;;;;;;6.70;2.90;;;;;;;28.47;25.31;100903.91;1698389;83;21225;-47
2023/05/19 13:03:48;;;;;;;10.63;2.90;;;;;;;28.48;25.35;100907.06;1695160;82;21194;-48
2023/05/19 13:06:55;;;;;;;7.90;3.52;;;;;;;28.50;25.30;100913.24;1723256;81;21293;-51
2023/05/19 13:10:01;;;;;;;6.58;3.55;;;;;;;28.50;25.29;100905.64;1721615;81;21184;-55
2023/05/19 13:13:10;;;;;;;7.30;3.40;;;;;;;28.50;25.31;100903.38;1718061;82;21691;-50
2023/05/19 13:16:18;;;;;;;6.12;3.00;;;;;;;28.51;25.26;100905.09;1746832;80;21789;-49
2023/05/19 13:19:26;;;;;;;13.25;3.33;;;;;;;28.47;25.20;100903.36;1767837;81;21503;-50
2023/05/19 13:22:32;;;;;;;7.80;3.50;;;;;;;28.44;25.27;100903.06;1769688;80;21475;-49
2023/05/19 13:25:41;;;;;;;8.20;3.33;;;;;;;28.46;25.31;100899.41;1769795;79;21186;-50
2023/05/19 13:28:46;;;;;;;5.62;3.30;;;;;;;28.49;25.32;100903.11;1770981;79;21220;-49
2023/05/19 13:31:53;;;;;;;6.60;3.52;;;;;;;28.52;25.37;100899.17;1761930;80;21181;-51
2023/05/19 13:35:01;;;;;;;8.50;3.35;;;;;;;28.59;25.40;100906.77;1770395;80;21245;-50
2023/05/19 13:38:08;;;;;;;9.25;3.65;;;;;;;28.86;25.53;100896.62;1770196;80;21205;-51
2023/05/19 13:41:14;;;;;;;5.03;3.08;;;;;;;29.10;25.55;100894.91;1761121;80;21217;-50
2023/05/19 13:44:20;;;;;;;6.33;3.62;;;;;;;29.44;25.83;100905.83;1769999;80;21276;-54
2023/05/19 13:47:25;;;;;;;7.17;3.72;;;;;;;29.44;25.83;100905.83;1770710;80;22100;-54
2023/05/19 13:50:33;;;;;;;6.10;3.22;;;;;;;29.59;25.45;100900.70;1740971;82;21236;-51
2023/05/19 13:53:38;;;;;;;7.22;3.22;;;;;;;29.59;25.33;100898.70;1770329;79;21244;-55
2023/05/19 13:56:47;;;;;;;6.80;3.65;;;;;;;29.59;25.33;100898.70;1769772;79;21221;-54
2023/05/19 13:59:52;;;;;;;8.58;4.05;;;;;;;29.55;25.35;100901.83;1747306;79;21225;-55
2023/05/19 14:03:06;;;;;;;7.67;3.55;;;;;;;29.48;25.26;100901.87;1712454;82;21271;-55
2023/05/19 14:06:13;;;;;;;7.72;4.58;;;;;;;29.20;25.41;100903.35;1739880;82;21319;-54
2023/05/19 14:09:18;;;;;;;8.20;4.72;;;;;;;29.20;25.41;100903.35;1726379;81;21344;-54
2023/05/19 14:12:26;;;;;;;9.58;5.83;;;;;;;29.16;25.20;100901.66;1757918;81;21188;-54
2023/05/19 14:15:36;;;;;;;9.75;4.70;;;;;;;29.17;25.19;100902.52;1748452;80;21226;-55
2023/05/19 14:18:42;;;;;;;5.90;3.70;;;;;;;29.16;25.27;100905.07;1738085;80;21204;-53
2023/05/19 14:21:50;;;;;;;9.65;4.22;;;;;;;29.20;25.31;100901.94;1758539;80;21733;-55
2023/05/19 14:24:56;;;;;;;10.78;4.03;;;;;;;29.46;25.90;100912.03;1758340;80;21200;-54
2023/05/19 14:28:03;;;;;;;11.43;5.35;;;;;;;29.46;25.90;100912.03;1756993;80;21741;-55
2023/05/19 14:31:08;;;;;;;15.53;4.75;;;;;;;29.61;25.49;100909.14;1758481;80;21216;-54